PWSweather.com
Personal Weather Stations
Station Observations
KMIEASTT1
Tawas Bay, East Tawas, MI 48730

Tawas BayEast Tawas, MI 48730

Lat: 44.28, Lon: -83.48

Elevation: 600

Station Type: Davis VantagePro

http://www.tawasbayweather.com

High Low Average
Temperature 33.1°F0.6°C 15.2°F-9.3°C 23.6°F-4.7°C
Dew Point 32.1°F0.1°C 12.0°F-11.1°C 20.8°F-6.2°C
Winds 8.0 mph 12.9 kmh Calm Calm 3.0 mph WSW4.8 kmh WSW
Wind Gusts 16.0 mph25.7 kmh -- 6.0 mph9.7 kmh
Humidity 97% 76% 89%
Pressure 30.42 in1030.1 mb 29.64 in1003.7 mb -
Precipitation 0.00 in0.0 mm - -
Hour Temp Dew Point Humidity Winds Wind Gusts Pressure Precip Precip Rate Daily Precip Total
12:00 AM 32.7°F0.4°C 31.7°F-0.2°C 96% 3.0 mph N4.8 kmh N 9.0 mph14.5 kmh 29.60 in1002.4 mb 0.05 in1.3 mm 0.00 in0.0 mm 0.05 in1.3 mm
12:15 AM 32.7°F0.4°C 31.7°F-0.2°C 96% 3.0 mph N4.8 kmh N 6.0 mph9.7 kmh 29.62 in1003.0 mb 0.07 in1.8 mm 0.08 in2.0 mm 0.07 in1.8 mm
12:30 AM 32.7°F0.4°C 31.9°F-0.1°C 97% 1.0 mph N1.6 kmh N 5.0 mph8.0 kmh 29.62 in1003.0 mb 0.05 in1.3 mm 0.00 in0.0 mm 0.07 in1.8 mm
12:45 AM 32.7°F0.4°C 31.9°F-0.1°C 97% 3.0 mph NW4.8 kmh NW 9.0 mph14.5 kmh 29.63 in1003.4 mb 0.06 in1.5 mm 0.04 in1.0 mm 0.08 in2.0 mm
01:00 AM 32.7°F0.4°C 31.9°F-0.1°C 97% 4.0 mph NW6.4 kmh NW 8.0 mph12.9 kmh 29.64 in1003.7 mb 0.00 in0.0 mm 0.00 in0.0 mm 0.08 in2.0 mm
01:15 AM 32.7°F0.4°C 31.9°F-0.1°C 97% 2.0 mph N3.2 kmh N 7.0 mph11.3 kmh 29.66 in1004.4 mb 0.00 in0.0 mm 0.00 in0.0 mm 0.08 in2.0 mm
01:30 AM 32.7°F0.4°C 31.9°F-0.1°C 97% 2.0 mph N3.2 kmh N 4.0 mph6.4 kmh 29.69 in1005.4 mb 0.00 in0.0 mm 0.00 in0.0 mm 0.08 in2.0 mm
01:45 AM 32.7°F0.4°C 31.9°F-0.1°C 97% 2.0 mph NW3.2 kmh NW 7.0 mph11.3 kmh 29.72 in1006.4 mb 0.00 in0.0 mm 0.00 in0.0 mm 0.08 in2.0 mm
02:00 AM 32.8°F0.4°C 32.0°F0.0°C 97% 2.0 mph N3.2 kmh N 8.0 mph12.9 kmh 29.73 in1006.8 mb 0.00 in0.0 mm 0.00 in0.0 mm 0.08 in2.0 mm
02:15 AM 32.8°F0.4°C 32.0°F0.0°C 97% Calm Calm 9.0 mph14.5 kmh 29.73 in1006.8 mb 0.00 in0.0 mm 0.00 in0.0 mm 0.08 in2.0 mm
02:30 AM 32.8°F0.4°C 31.8°F-0.1°C 96% 2.0 mph NNW3.2 kmh NNW 9.0 mph14.5 kmh 29.75 in1007.5 mb 0.00 in0.0 mm 0.00 in0.0 mm 0.08 in2.0 mm
02:45 AM 32.8°F0.4°C 31.8°F-0.1°C 96% 3.0 mph NNW4.8 kmh NNW 7.0 mph11.3 kmh 29.77 in1008.1 mb 0.00 in0.0 mm 0.00 in0.0 mm 0.08 in2.0 mm
03:00 AM 32.8°F0.4°C 31.8°F-0.1°C 96% 2.0 mph NNW3.2 kmh NNW 8.0 mph12.9 kmh 29.80 in1009.1 mb 0.00 in0.0 mm 0.00 in0.0 mm 0.08 in2.0 mm
03:15 AM 32.8°F0.4°C 31.8°F-0.1°C 96% 4.0 mph NNW6.4 kmh NNW 6.0 mph9.7 kmh 29.82 in1009.8 mb 0.00 in0.0 mm 0.00 in0.0 mm 0.08 in2.0 mm
03:30 AM 32.9°F0.5°C 31.9°F-0.1°C 96% 3.0 mph NW4.8 kmh NW 5.0 mph8.0 kmh 29.85 in1010.8 mb 0.00 in0.0 mm 0.00 in0.0 mm 0.08 in2.0 mm
03:45 AM 32.9°F0.5°C 31.9°F-0.1°C 96% 1.0 mph NW1.6 kmh NW 5.0 mph8.0 kmh 29.86 in1011.2 mb 0.00 in0.0 mm 0.00 in0.0 mm 0.08 in2.0 mm
04:00 AM 33.0°F0.6°C 32.0°F0.0°C 96% 3.0 mph NW4.8 kmh NW 5.0 mph8.0 kmh 29.89 in1012.2 mb 0.00 in0.0 mm 0.00 in0.0 mm 0.08 in2.0 mm
04:15 AM 33.1°F0.6°C 32.1°F0.1°C 96% 3.0 mph W4.8 kmh W 7.0 mph11.3 kmh 29.91 in1012.9 mb 0.00 in0.0 mm 0.00 in0.0 mm 0.08 in2.0 mm
04:30 AM 33.0°F0.6°C 32.0°F0.0°C 96% 3.0 mph NW4.8 kmh NW 5.0 mph8.0 kmh 29.92 in1013.2 mb 0.00 in0.0 mm 0.00 in0.0 mm 0.08 in2.0 mm
04:45 AM 32.9°F0.5°C 31.9°F-0.1°C 96% 7.0 mph WNW11.3 kmh WNW 7.0 mph11.3 kmh 29.94 in1013.9 mb 0.00 in0.0 mm 0.00 in0.0 mm 0.08 in2.0 mm
05:00 AM 32.6°F0.3°C 31.6°F-0.2°C 96% 1.0 mph NNW1.6 kmh NNW 9.0 mph14.5 kmh 29.95 in1014.2 mb 0.00 in0.0 mm 0.00 in0.0 mm 0.08 in2.0 mm
05:15 AM 32.3°F0.2°C 31.0°F-0.6°C 95% 4.0 mph W6.4 kmh W 7.0 mph11.3 kmh 29.97 in1014.9 mb 0.00 in0.0 mm 0.00 in0.0 mm 0.08 in2.0 mm
05:30 AM 32.0°F0.0°C 30.7°F-0.7°C 95% 4.0 mph NNW6.4 kmh NNW 9.0 mph14.5 kmh 29.98 in1015.2 mb 0.00 in0.0 mm 0.00 in0.0 mm 0.08 in2.0 mm
05:45 AM 31.6°F-0.2°C 30.3°F-0.9°C 95% 4.0 mph NW6.4 kmh NW 5.0 mph8.0 kmh 30.00 in1015.9 mb 0.00 in0.0 mm 0.00 in0.0 mm 0.08 in2.0 mm
06:00 AM 30.3°F-0.9°C 28.8°F-1.8°C 94% 8.0 mph NW12.9 kmh NW 12.0 mph19.3 kmh 30.01 in1016.3 mb 0.00 in0.0 mm 0.00 in0.0 mm 0.08 in2.0 mm
06:15 AM 29.6°F-1.3°C 27.8°F-2.3°C 93% 4.0 mph NNW6.4 kmh NNW 11.0 mph17.7 kmh 30.02 in1016.6 mb 0.00 in0.0 mm 0.00 in0.0 mm 0.08 in2.0 mm
06:30 AM 29.1°F-1.6°C 27.3°F-2.6°C 93% 4.0 mph NNW6.4 kmh NNW 11.0 mph17.7 kmh 30.02 in1016.6 mb 0.00 in0.0 mm 0.00 in0.0 mm 0.08 in2.0 mm
06:45 AM 28.5°F-1.9°C 26.7°F-2.9°C 93% 4.0 mph NNW6.4 kmh NNW 8.0 mph12.9 kmh 30.04 in1017.3 mb 0.00 in0.0 mm 0.00 in0.0 mm 0.08 in2.0 mm
07:00 AM 27.9°F-2.3°C 26.1°F-3.3°C 93% 5.0 mph NW8.0 kmh NW 11.0 mph17.7 kmh 30.05 in1017.6 mb 0.00 in0.0 mm 0.00 in0.0 mm 0.08 in2.0 mm
07:15 AM 26.7°F-2.9°C 25.0°F-3.9°C 93% 2.0 mph NNW3.2 kmh NNW 9.0 mph14.5 kmh 30.07 in1018.3 mb 0.00 in0.0 mm 0.00 in0.0 mm 0.08 in2.0 mm
07:30 AM 26.0°F-3.3°C 24.0°F-4.4°C 92% 7.0 mph NW11.3 kmh NW 10.0 mph16.1 kmh 30.09 in1019.0 mb 0.00 in0.0 mm 0.00 in0.0 mm 0.08 in2.0 mm
07:45 AM 25.4°F-3.7°C 23.4°F-4.8°C 92% 8.0 mph N12.9 kmh N 11.0 mph17.7 kmh 30.11 in1019.6 mb 0.00 in0.0 mm 0.00 in0.0 mm 0.08 in2.0 mm
08:00 AM 25.0°F-3.9°C 23.0°F-5.0°C 92% 3.0 mph N4.8 kmh N 10.0 mph16.1 kmh 30.14 in1020.7 mb 0.00 in0.0 mm 0.00 in0.0 mm 0.08 in2.0 mm
08:15 AM 24.9°F-3.9°C 22.7°F-5.2°C 91% 3.0 mph NNE4.8 kmh NNE 9.0 mph14.5 kmh 30.17 in1021.7 mb 0.00 in0.0 mm 0.00 in0.0 mm 0.08 in2.0 mm
08:30 AM 24.5°F-4.2°C 22.3°F-5.4°C 91% 7.0 mph NW11.3 kmh NW 10.0 mph16.1 kmh 30.18 in1022.0 mb 0.00 in0.0 mm 0.00 in0.0 mm 0.08 in2.0 mm
08:45 AM 24.0°F-4.4°C 21.8°F-5.7°C 91% 4.0 mph NW6.4 kmh NW 13.0 mph20.9 kmh 30.20 in1022.7 mb 0.00 in0.0 mm 0.00 in0.0 mm 0.08 in2.0 mm
09:00 AM 23.8°F-4.6°C 21.6°F-5.8°C 91% 3.0 mph N4.8 kmh N 7.0 mph11.3 kmh 30.20 in1022.7 mb 0.00 in0.0 mm 0.00 in0.0 mm 0.08 in2.0 mm
09:15 AM 22.9°F-5.1°C 20.4°F-6.4°C 90% 7.0 mph WNW11.3 kmh WNW 16.0 mph25.7 kmh 30.21 in1023.0 mb 0.00 in0.0 mm 0.00 in0.0 mm 0.08 in2.0 mm
09:30 AM 22.5°F-5.3°C 20.0°F-6.7°C 90% 8.0 mph ENE12.9 kmh ENE 12.0 mph19.3 kmh 30.22 in1023.4 mb 0.00 in0.0 mm 0.00 in0.0 mm 0.08 in2.0 mm
09:45 AM 22.2°F-5.4°C 20.0°F-6.7°C 91% 2.0 mph N3.2 kmh N 8.0 mph12.9 kmh 30.23 in1023.7 mb 0.00 in0.0 mm 0.00 in0.0 mm 0.08 in2.0 mm
10:00 AM 21.9°F-5.6°C 19.4°F-7.0°C 90% 8.0 mph NNW12.9 kmh NNW 11.0 mph17.7 kmh 30.24 in1024.0 mb 0.00 in0.0 mm 0.00 in0.0 mm 0.08 in2.0 mm
10:15 AM 21.9°F-5.6°C 19.4°F-7.0°C 90% 3.0 mph NW4.8 kmh NW 6.0 mph9.7 kmh 30.25 in1024.4 mb 0.00 in0.0 mm 0.00 in0.0 mm 0.08 in2.0 mm
10:30 AM 21.6°F-5.8°C 19.1°F-7.2°C 90% 4.0 mph NNW6.4 kmh NNW 9.0 mph14.5 kmh 30.25 in1024.4 mb 0.00 in0.0 mm 0.00 in0.0 mm 0.08 in2.0 mm
10:45 AM 21.1°F-6.1°C 18.4°F-7.6°C 89% 5.0 mph NW8.0 kmh NW 9.0 mph14.5 kmh 30.25 in1024.4 mb 0.00 in0.0 mm 0.00 in0.0 mm 0.08 in2.0 mm
11:00 AM 20.9°F-6.2°C 18.2°F-7.7°C 89% 4.0 mph N6.4 kmh N 9.0 mph14.5 kmh 30.25 in1024.4 mb 0.00 in0.0 mm 0.00 in0.0 mm 0.08 in2.0 mm
11:15 AM 20.8°F-6.2°C 18.1°F-7.7°C 89% 1.0 mph N1.6 kmh N 15.0 mph24.1 kmh 30.27 in1025.1 mb 0.00 in0.0 mm 0.00 in0.0 mm 0.08 in2.0 mm
11:30 AM 20.5°F-6.4°C 17.8°F-7.9°C 89% 7.0 mph NW11.3 kmh NW 14.0 mph22.5 kmh 30.28 in1025.4 mb 0.00 in0.0 mm 0.00 in0.0 mm 0.08 in2.0 mm
11:45 AM 20.9°F-6.2°C 18.4°F-7.6°C 90% 4.0 mph N6.4 kmh N 8.0 mph12.9 kmh 30.29 in1025.7 mb 0.00 in0.0 mm 0.00 in0.0 mm 0.08 in2.0 mm
12:00 PM 21.1°F-6.1°C 18.4°F-7.6°C 89% Calm Calm 10.0 mph16.1 kmh 30.30 in1026.1 mb 0.00 in0.0 mm 0.00 in0.0 mm 0.08 in2.0 mm
12:15 PM 21.9°F-5.6°C 18.6°F-7.4°C 87% 4.0 mph NW6.4 kmh NW 9.0 mph14.5 kmh 30.32 in1026.8 mb 0.00 in0.0 mm 0.00 in0.0 mm 0.08 in2.0 mm
12:30 PM 22.0°F-5.6°C 18.7°F-7.4°C 87% 4.0 mph NW6.4 kmh NW 8.0 mph12.9 kmh 30.32 in1026.8 mb 0.00 in0.0 mm 0.00 in0.0 mm 0.08 in2.0 mm
12:45 PM 22.9°F-5.1°C 19.1°F-7.2°C 85% 3.0 mph N4.8 kmh N 8.0 mph12.9 kmh 30.32 in1026.8 mb 0.00 in0.0 mm 0.00 in0.0 mm 0.08 in2.0 mm
01:00 PM 23.1°F-4.9°C 19.0°F-7.2°C 84% 5.0 mph N8.0 kmh N 6.0 mph9.7 kmh 30.32 in1026.8 mb 0.00 in0.0 mm 0.00 in0.0 mm 0.08 in2.0 mm
01:15 PM 22.6°F-5.2°C 18.8°F-7.3°C 85% 3.0 mph NW4.8 kmh NW 6.0 mph9.7 kmh 30.32 in1026.8 mb 0.00 in0.0 mm 0.00 in0.0 mm 0.08 in2.0 mm
01:30 PM 21.7°F-5.7°C 18.4°F-7.6°C 87% 4.0 mph NW6.4 kmh NW 6.0 mph9.7 kmh 30.32 in1026.8 mb 0.00 in0.0 mm 0.00 in0.0 mm 0.08 in2.0 mm
01:45 PM 21.3°F-5.9°C 18.0°F-7.8°C 87% 4.0 mph NW6.4 kmh NW 6.0 mph9.7 kmh 30.32 in1026.8 mb 0.00 in0.0 mm 0.00 in0.0 mm 0.08 in2.0 mm
02:00 PM 21.6°F-5.8°C 18.6°F-7.4°C 88% 4.0 mph NW6.4 kmh NW 5.0 mph8.0 kmh 30.32 in1026.8 mb 0.00 in0.0 mm 0.00 in0.0 mm 0.08 in2.0 mm
02:15 PM 21.1°F-6.1°C 17.8°F-7.9°C 87% 4.0 mph NW6.4 kmh NW 8.0 mph12.9 kmh 30.33 in1027.1 mb 0.00 in0.0 mm 0.00 in0.0 mm 0.08 in2.0 mm
02:30 PM 20.9°F-6.2°C 17.7°F-7.9°C 87% 2.0 mph NW3.2 kmh NW 6.0 mph9.7 kmh 30.34 in1027.4 mb 0.00 in0.0 mm 0.00 in0.0 mm 0.08 in2.0 mm
02:45 PM 22.1°F-5.5°C 18.8°F-7.3°C 87% 5.0 mph NW8.0 kmh NW 7.0 mph11.3 kmh 30.33 in1027.1 mb 0.00 in0.0 mm 0.00 in0.0 mm 0.08 in2.0 mm
03:00 PM 22.4°F-5.3°C 18.6°F-7.4°C 85% 4.0 mph NNW6.4 kmh NNW 6.0 mph9.7 kmh 30.34 in1027.4 mb 0.83 in21.1 mm 1.11 in28.2 mm 0.91 in23.1 mm
03:15 PM 21.3°F-5.9°C 17.2°F-8.2°C 84% 2.0 mph NW3.2 kmh NW 7.0 mph11.3 kmh 30.34 in1027.4 mb 0.83 in21.1 mm 0.00 in0.0 mm 0.91 in23.1 mm
03:30 PM 22.7°F-5.2°C 19.2°F-7.1°C 86% Calm Calm 6.0 mph9.7 kmh 30.33 in1027.1 mb 0.83 in21.1 mm 0.00 in0.0 mm 0.91 in23.1 mm
03:45 PM 23.0°F-5.0°C 18.6°F-7.4°C 83% 5.0 mph NNW8.0 kmh NNW 7.0 mph11.3 kmh 30.33 in1027.1 mb 0.83 in21.1 mm 0.00 in0.0 mm 0.91 in23.1 mm
04:00 PM 23.8°F-4.6°C 19.7°F-6.8°C 84% 1.0 mph N1.6 kmh N 7.0 mph11.3 kmh 30.33 in1027.1 mb 0.00 in0.0 mm 0.00 in0.0 mm 0.91 in23.1 mm
04:15 PM 23.9°F-4.5°C 18.9°F-7.3°C 81% 4.0 mph NW6.4 kmh NW 6.0 mph9.7 kmh 30.35 in1027.8 mb 0.00 in0.0 mm 0.00 in0.0 mm 0.91 in23.1 mm
04:30 PM 24.7°F-4.1°C 19.7°F-6.8°C 81% 1.0 mph N1.6 kmh N 5.0 mph8.0 kmh 30.35 in1027.8 mb 0.00 in0.0 mm 0.00 in0.0 mm 0.91 in23.1 mm
04:45 PM 24.6°F-4.1°C 18.4°F-7.6°C 77% 2.0 mph E3.2 kmh E 6.0 mph9.7 kmh 30.35 in1027.8 mb 0.00 in0.0 mm 0.00 in0.0 mm 0.91 in23.1 mm
05:00 PM 24.1°F-4.4°C 17.6°F-8.0°C 76% 2.0 mph N3.2 kmh N 3.0 mph4.8 kmh 30.35 in1027.8 mb 0.00 in0.0 mm 0.00 in0.0 mm 0.91 in23.1 mm
05:15 PM 24.1°F-4.4°C 18.5°F-7.5°C 79% 1.0 mph N1.6 kmh N 6.0 mph9.7 kmh 30.35 in1027.8 mb 0.00 in0.0 mm 0.00 in0.0 mm 0.91 in23.1 mm
05:30 PM 23.2°F-4.9°C 18.3°F-7.6°C 81% Calm Calm 5.0 mph8.0 kmh 30.35 in1027.8 mb 0.00 in0.0 mm 0.00 in0.0 mm 0.91 in23.1 mm
05:45 PM 23.0°F-5.0°C 17.2°F-8.2°C 78% 1.0 mph NNE1.6 kmh NNE 4.0 mph6.4 kmh 30.35 in1027.8 mb 0.00 in0.0 mm 0.00 in0.0 mm 0.91 in23.1 mm
06:00 PM 22.0°F-5.6°C 16.8°F-8.4°C 80% Calm Calm 2.0 mph3.2 kmh 30.36 in1028.1 mb 0.00 in0.0 mm 0.00 in0.0 mm 0.91 in23.1 mm
06:15 PM 20.5°F-6.4°C 15.0°F-9.4°C 79% Calm Calm 2.0 mph3.2 kmh 30.36 in1028.1 mb 0.00 in0.0 mm 0.00 in0.0 mm 0.91 in23.1 mm
06:30 PM 19.7°F-6.8°C 14.8°F-9.6°C 81% Calm Calm 1.0 mph1.6 kmh 30.36 in1028.1 mb 0.00 in0.0 mm 0.00 in0.0 mm 0.91 in23.1 mm
06:45 PM 19.2°F-7.1°C 14.6°F-9.7°C 82% Calm Calm 2.0 mph3.2 kmh 30.37 in1028.4 mb 0.00 in0.0 mm 0.00 in0.0 mm 0.91 in23.1 mm
07:00 PM 18.8°F-7.3°C 14.5°F-9.7°C 83% Calm Calm -- 30.37 in1028.4 mb 0.00 in0.0 mm 0.00 in0.0 mm 0.91 in23.1 mm
07:15 PM 19.1°F-7.2°C 15.3°F-9.3°C 85% Calm Calm -- 30.38 in1028.8 mb 0.00 in0.0 mm 0.00 in0.0 mm 0.91 in23.1 mm
07:30 PM 18.8°F-7.3°C 15.1°F-9.4°C 85% Calm Calm -- 30.38 in1028.8 mb 0.00 in0.0 mm 0.00 in0.0 mm 0.91 in23.1 mm
07:45 PM 18.6°F-7.4°C 15.1°F-9.4°C 86% Calm Calm -- 30.39 in1029.1 mb 0.00 in0.0 mm 0.00 in0.0 mm 0.91 in23.1 mm
08:00 PM 18.0°F-7.8°C 14.3°F-9.8°C 85% Calm Calm 1.0 mph1.6 kmh 30.39 in1029.1 mb 0.00 in0.0 mm 0.00 in0.0 mm 0.91 in23.1 mm
08:15 PM 17.8°F-7.9°C 14.3°F-9.8°C 86% Calm Calm 2.0 mph3.2 kmh 30.40 in1029.5 mb 0.00 in0.0 mm 0.00 in0.0 mm 0.91 in23.1 mm
08:30 PM 17.3°F-8.2°C 13.8°F-10.1°C 86% Calm Calm 1.0 mph1.6 kmh 30.41 in1029.8 mb 0.00 in0.0 mm 0.00 in0.0 mm 0.91 in23.1 mm
08:45 PM 17.1°F-8.3°C 13.9°F-10.1°C 87% Calm Calm 2.0 mph3.2 kmh 30.41 in1029.8 mb 0.00 in0.0 mm 0.00 in0.0 mm 0.91 in23.1 mm
09:00 PM 16.9°F-8.4°C 13.7°F-10.2°C 87% Calm Calm 2.0 mph3.2 kmh 30.42 in1030.1 mb 0.00 in0.0 mm 0.00 in0.0 mm 0.91 in23.1 mm
09:15 PM 16.6°F-8.6°C 13.7°F-10.2°C 88% 1.0 mph NNE1.6 kmh NNE 2.0 mph3.2 kmh 30.41 in1029.8 mb 0.00 in0.0 mm 0.00 in0.0 mm 0.91 in23.1 mm
09:30 PM 16.3°F-8.7°C 13.6°F-10.2°C 89% 1.0 mph N1.6 kmh N 3.0 mph4.8 kmh 30.41 in1029.8 mb 0.00 in0.0 mm 0.00 in0.0 mm 0.91 in23.1 mm
09:45 PM 16.4°F-8.7°C 13.7°F-10.2°C 89% Calm Calm 1.0 mph1.6 kmh 30.40 in1029.5 mb 0.00 in0.0 mm 0.00 in0.0 mm 0.91 in23.1 mm
10:00 PM 16.6°F-8.6°C 13.9°F-10.1°C 89% 2.0 mph N3.2 kmh N 2.0 mph3.2 kmh 30.41 in1029.8 mb 0.00 in0.0 mm 0.00 in0.0 mm 0.91 in23.1 mm
10:15 PM 16.6°F-8.6°C 13.9°F-10.1°C 89% Calm Calm 3.0 mph4.8 kmh 30.40 in1029.5 mb 0.00 in0.0 mm 0.00 in0.0 mm 0.91 in23.1 mm
10:30 PM 16.5°F-8.6°C 13.6°F-10.2°C 88% 2.0 mph N3.2 kmh N 4.0 mph6.4 kmh 30.40 in1029.5 mb 0.00 in0.0 mm 0.00 in0.0 mm 0.91 in23.1 mm
10:45 PM 16.1°F-8.8°C 13.2°F-10.4°C 88% Calm Calm 4.0 mph6.4 kmh 30.40 in1029.5 mb 0.00 in0.0 mm 0.00 in0.0 mm 0.91 in23.1 mm
11:00 PM 16.2°F-8.8°C 13.3°F-10.4°C 88% 2.0 mph NNW3.2 kmh NNW 4.0 mph6.4 kmh 30.39 in1029.1 mb 0.00 in0.0 mm 0.00 in0.0 mm 0.91 in23.1 mm
11:15 PM 16.1°F-8.8°C 12.9°F-10.6°C 87% 2.0 mph NNW3.2 kmh NNW 4.0 mph6.4 kmh 30.39 in1029.1 mb 0.00 in0.0 mm 0.00 in0.0 mm 0.91 in23.1 mm
11:30 PM 16.2°F-8.8°C 13.0°F-10.6°C 87% 1.0 mph N1.6 kmh N 3.0 mph4.8 kmh 30.38 in1028.8 mb 0.00 in0.0 mm 0.00 in0.0 mm 0.91 in23.1 mm
11:45 PM 16.0°F-8.9°C 12.6°F-10.8°C 86% Calm Calm 4.0 mph6.4 kmh 30.38 in1028.8 mb 0.00 in0.0 mm 0.00 in0.0 mm 0.91 in23.1 mm